createdAt,value
2017-08-03T00:01:15.258Z,99.90
2017-08-03T00:03:43.563Z,99.90
2017-08-03T00:06:12.074Z,99.90
2017-08-03T00:08:40.416Z,99.90
2017-08-03T00:11:08.709Z,99.90
2017-08-03T00:13:38.558Z,99.90
2017-08-03T00:16:06.884Z,99.90
2017-08-03T00:18:35.226Z,99.90
2017-08-03T00:21:03.552Z,99.90
2017-08-03T00:23:31.904Z,99.90
2017-08-03T00:26:00.204Z,99.90
2017-08-03T00:28:28.514Z,99.90
2017-08-03T00:30:56.819Z,99.90
2017-08-03T00:33:25.247Z,99.90
2017-08-03T00:35:54.318Z,99.90
2017-08-03T00:38:22.627Z,99.90
2017-08-03T00:40:50.973Z,99.90
2017-08-03T00:43:19.269Z,99.90
2017-08-03T00:45:48.364Z,99.90
2017-08-03T00:48:17.439Z,99.90
2017-08-03T00:50:46.175Z,99.90
2017-08-03T00:53:14.485Z,99.90
2017-08-03T00:55:42.792Z,99.90
2017-08-03T00:58:11.127Z,99.90
2017-08-03T01:00:39.436Z,99.90
2017-08-03T01:03:07.779Z,99.90
2017-08-03T01:05:36.085Z,99.90
2017-08-03T01:08:04.421Z,99.90
2017-08-03T01:10:32.731Z,99.90
2017-08-03T01:13:01.249Z,99.90
2017-08-03T01:15:29.535Z,99.90
2017-08-03T01:17:57.880Z,99.90
2017-08-03T01:20:26.214Z,99.90
2017-08-03T01:22:54.538Z,99.90
2017-08-03T01:25:22.870Z,99.90
2017-08-03T01:27:51.183Z,99.90
2017-08-03T01:30:19.499Z,99.90
2017-08-03T01:32:47.826Z,99.90
2017-08-03T01:35:16.147Z,99.90
2017-08-03T01:37:44.476Z,99.90
2017-08-03T01:40:12.815Z,99.90
2017-08-03T01:42:41.127Z,99.90
2017-08-03T01:45:09.449Z,99.90
2017-08-03T01:47:37.782Z,99.90
2017-08-03T01:50:06.090Z,99.90
2017-08-03T01:52:35.190Z,99.90
2017-08-03T01:55:03.492Z,99.90
2017-08-03T01:57:31.924Z,99.90
2017-08-03T02:00:00.255Z,99.90
2017-08-03T02:02:28.555Z,99.90
2017-08-03T02:04:56.891Z,99.90
2017-08-03T02:07:25.961Z,99.90
2017-08-03T02:09:54.653Z,99.90
2017-08-03T02:12:23.743Z,99.90
2017-08-03T02:14:52.035Z,99.90
2017-08-03T02:17:20.380Z,99.90
2017-08-03T02:19:48.674Z,99.90
2017-08-03T02:22:17.769Z,99.90
2017-08-03T02:24:46.070Z,99.90
2017-08-03T02:27:14.393Z,99.90
2017-08-03T02:29:42.710Z,99.90
2017-08-03T02:32:11.803Z,99.90
2017-08-03T02:34:40.275Z,99.90
2017-08-03T02:37:08.697Z,99.90
2017-08-03T02:39:36.990Z,99.90
2017-08-03T02:42:05.306Z,99.90
2017-08-03T02:44:34.402Z,99.90
2017-08-03T02:47:02.697Z,99.90
2017-08-03T02:49:31.892Z,99.90
2017-08-03T02:52:00.221Z,99.90
2017-08-03T02:54:28.499Z,99.90
2017-08-03T02:56:56.828Z,99.90
2017-08-03T02:59:25.136Z,99.90
2017-08-03T03:01:53.471Z,99.90
2017-08-03T03:04:22.552Z,99.90
2017-08-03T03:06:51.647Z,99.90
2017-08-03T03:09:19.992Z,99.90
2017-08-03T03:11:48.337Z,99.90
2017-08-03T03:14:16.914Z,99.90
2017-08-03T03:16:45.359Z,99.90
2017-08-03T03:19:14.424Z,99.90
2017-08-03T03:21:42.746Z,99.90
2017-08-03T03:24:11.952Z,99.90
2017-08-03T03:26:41.017Z,99.90
2017-08-03T03:29:09.519Z,99.90
2017-08-03T03:31:37.830Z,99.90
2017-08-03T03:34:06.152Z,99.90
2017-08-03T03:36:34.479Z,99.90
2017-08-03T03:39:02.787Z,99.90
2017-08-03T03:41:31.126Z,99.90
2017-08-03T03:43:59.561Z,99.90
2017-08-03T03:46:27.874Z,99.90
2017-08-03T03:48:56.190Z,99.90
2017-08-03T03:51:24.532Z,99.90
2017-08-03T03:53:52.846Z,99.90
2017-08-03T03:56:21.312Z,99.90
2017-08-03T03:58:49.639Z,99.90
2017-08-03T04:01:17.970Z,99.90
2017-08-03T04:03:46.317Z,99.90
2017-08-03T04:06:14.626Z,99.90
2017-08-03T04:08:43.729Z,99.90
2017-08-03T04:11:12.158Z,99.90
2017-08-03T04:13:40.486Z,99.90
2017-08-03T04:16:09.587Z,99.90
2017-08-03T04:18:37.926Z,99.90
2017-08-03T04:21:06.244Z,99.90
2017-08-03T04:23:34.576Z,99.90
2017-08-03T04:26:02.897Z,99.90
2017-08-03T04:28:31.233Z,99.90
2017-08-03T04:30:59.564Z,99.90
2017-08-03T04:33:28.039Z,99.90
2017-08-03T04:35:56.364Z,99.90
2017-08-03T04:38:24.675Z,99.90
2017-08-03T04:40:53.108Z,99.90
2017-08-03T04:43:21.462Z,99.90
2017-08-03T04:45:49.749Z,99.90
2017-08-03T04:48:18.839Z,99.90
2017-08-03T04:50:47.937Z,99.90
2017-08-03T04:53:16.267Z,99.90
2017-08-03T04:55:44.582Z,99.90
2017-08-03T04:58:12.929Z,99.90
2017-08-03T05:00:41.255Z,99.90
2017-08-03T05:03:10.331Z,99.90
2017-08-03T05:05:38.631Z,99.90
2017-08-03T05:08:06.962Z,99.90
2017-08-03T05:10:35.280Z,99.90
2017-08-03T05:13:03.879Z,99.90
2017-08-03T05:15:32.184Z,99.90
2017-08-03T05:18:00.482Z,99.90
2017-08-03T05:20:28.802Z,99.90
2017-08-03T05:22:57.106Z,99.90
2017-08-03T05:25:25.447Z,99.90
2017-08-03T05:27:53.741Z,99.90
2017-08-03T05:30:22.176Z,99.90
2017-08-03T05:32:50.480Z,99.90
2017-08-03T05:35:18.816Z,99.90
2017-08-03T05:37:47.130Z,99.90
2017-08-03T05:40:15.518Z,99.90
2017-08-03T05:42:43.855Z,99.90
2017-08-03T05:45:12.166Z,99.90
2017-08-03T05:47:40.486Z,99.90
2017-08-03T05:50:08.817Z,99.90
2017-08-03T05:52:37.142Z,99.90
2017-08-03T05:55:05.446Z,99.90
2017-08-03T05:57:34.665Z,99.90
2017-08-03T06:00:03.762Z,99.90
2017-08-03T06:02:32.862Z,99.90
2017-08-03T06:05:01.951Z,99.90
2017-08-03T06:07:30.271Z,99.90
2017-08-03T06:09:58.614Z,99.90
2017-08-03T06:12:26.926Z,99.90
2017-08-03T06:14:55.333Z,99.90
2017-08-03T06:17:23.660Z,99.90
2017-08-03T06:19:51.990Z,99.90
2017-08-03T06:22:20.295Z,99.90
2017-08-03T06:24:48.864Z,99.90
2017-08-03T06:27:17.184Z,99.90
2017-08-03T06:29:45.489Z,99.90
2017-08-03T06:32:13.830Z,99.90
2017-08-03T06:34:42.139Z,99.90
2017-08-03T06:37:10.579Z,99.90
2017-08-03T06:39:38.881Z,99.90
2017-08-03T06:42:07.204Z,99.90
2017-08-03T06:44:35.550Z,99.90
2017-08-03T06:47:03.892Z,99.90
2017-08-03T06:49:32.212Z,99.90
2017-08-03T06:52:00.530Z,99.90
2017-08-03T06:54:28.886Z,99.90
2017-08-03T06:56:57.203Z,99.90
2017-08-03T06:59:25.762Z,99.90
2017-08-03T07:01:54.082Z,99.90
2017-08-03T07:04:23.196Z,99.90
2017-08-03T07:06:51.636Z,99.90
2017-08-03T07:09:19.944Z,99.90
2017-08-03T07:11:48.264Z,99.90
2017-08-03T07:14:16.578Z,99.90
2017-08-03T07:16:44.917Z,99.90
2017-08-03T07:19:13.226Z,99.90
2017-08-03T07:21:41.559Z,99.90
2017-08-03T07:24:10.627Z,99.90
2017-08-03T07:26:38.967Z,99.90
2017-08-03T07:29:07.287Z,99.90
2017-08-03T07:31:35.891Z,99.90
2017-08-03T07:34:04.183Z,99.90
2017-08-03T07:36:32.550Z,99.90
2017-08-03T07:39:00.962Z,99.90
2017-08-03T07:41:29.289Z,99.90
2017-08-03T07:43:57.643Z,99.90
2017-08-03T07:46:25.960Z,99.90
2017-08-03T07:48:54.402Z,99.90
2017-08-03T07:51:22.738Z,99.90
2017-08-03T07:53:51.056Z,99.90
2017-08-03T07:56:19.911Z,99.90
2017-08-03T07:58:48.206Z,99.90
2017-08-03T08:01:16.579Z,99.90
2017-08-03T08:03:44.929Z,99.90
2017-08-03T08:06:13.373Z,99.90
2017-08-03T08:08:41.716Z,99.90
2017-08-03T08:11:10.042Z,99.90
2017-08-03T08:13:39.134Z,99.90
2017-08-03T08:16:08.202Z,99.90
2017-08-03T08:18:36.538Z,99.90
2017-08-03T08:21:04.843Z,99.90
2017-08-03T08:23:33.274Z,99.90
2017-08-03T08:26:01.603Z,99.90
2017-08-03T08:28:30.408Z,99.90
2017-08-03T08:30:58.835Z,99.90
2017-08-03T08:33:27.146Z,99.90
2017-08-03T08:35:55.483Z,99.90
2017-08-03T08:38:23.793Z,99.90
2017-08-03T08:40:52.430Z,99.90
2017-08-03T08:43:20.724Z,99.90
2017-08-03T08:45:49.051Z,99.90
2017-08-03T08:48:17.391Z,99.90
2017-08-03T08:50:45.707Z,99.90
2017-08-03T08:53:14.062Z,99.90
2017-08-03T08:55:42.390Z,99.90
2017-08-03T08:58:10.723Z,99.90
2017-08-03T09:00:39.023Z,99.90
2017-08-03T09:03:08.221Z,99.90
2017-08-03T09:05:36.540Z,99.90
2017-08-03T09:08:04.856Z,99.90
2017-08-03T09:10:33.218Z,99.90
2017-08-03T09:13:01.762Z,99.90
2017-08-03T09:15:30.946Z,99.90
2017-08-03T09:17:59.324Z,99.90
2017-08-03T09:20:27.684Z,99.90
2017-08-03T09:22:56.759Z,99.90
2017-08-03T09:25:25.484Z,99.90
2017-08-03T09:27:53.812Z,99.90
2017-08-03T09:30:22.129Z,99.90
2017-08-03T09:32:51.336Z,99.90
2017-08-03T09:35:19.655Z,99.90
2017-08-03T09:37:47.951Z,99.90
2017-08-03T09:40:16.287Z,99.90
2017-08-03T09:42:44.608Z,99.90
2017-08-03T09:45:12.938Z,99.90
2017-08-03T09:47:41.251Z,99.90
2017-08-03T09:50:09.954Z,99.90
2017-08-03T09:52:38.259Z,99.90
2017-08-03T09:55:06.566Z,99.90
2017-08-03T09:57:34.903Z,99.90
2017-08-03T10:00:03.980Z,99.90
2017-08-03T10:02:32.313Z,99.90
2017-08-03T10:05:00.619Z,99.90
2017-08-03T10:07:28.940Z,99.90
2017-08-03T10:09:57.998Z,99.90
2017-08-03T10:12:26.346Z,99.90
2017-08-03T10:14:54.649Z,99.90
2017-08-03T10:17:23.080Z,99.90
2017-08-03T10:19:51.389Z,99.90
2017-08-03T10:22:20.347Z,99.90
2017-08-03T10:24:48.694Z,99.90
2017-08-03T10:27:16.997Z,99.90
2017-08-03T10:29:45.568Z,99.90
2017-08-03T10:32:13.875Z,99.90
2017-08-03T10:34:42.178Z,99.90
2017-08-03T10:37:10.525Z,99.90
2017-08-03T10:39:38.839Z,99.90
2017-08-03T10:42:07.171Z,98.90
2017-08-03T10:44:35.479Z,98.50
2017-08-03T10:47:04.108Z,97.90
2017-08-03T10:49:32.430Z,98.10
2017-08-03T10:52:00.734Z,97.90
2017-08-03T10:54:29.055Z,97.50
2017-08-03T10:56:57.376Z,97.80
2017-08-03T10:59:25.821Z,98.20
2017-08-03T11:01:54.155Z,98.60
2017-08-03T11:04:22.467Z,99.00
2017-08-03T11:06:50.842Z,99.80
2017-08-03T11:09:19.157Z,99.90
2017-08-03T11:11:47.501Z,99.90
2017-08-03T11:14:15.835Z,99.90
2017-08-03T11:16:44.989Z,99.90
2017-08-03T11:19:13.331Z,99.90
2017-08-03T11:21:41.694Z,99.90
2017-08-03T11:24:10.191Z,99.90
2017-08-03T11:26:38.546Z,99.90
2017-08-03T11:29:06.872Z,99.90
2017-08-03T11:31:35.244Z,99.90
2017-08-03T11:34:03.548Z,99.90
2017-08-03T11:36:32.276Z,99.90
2017-08-03T11:39:00.606Z,99.90
2017-08-03T11:41:28.922Z,99.90
2017-08-03T11:43:58.018Z,99.90
2017-08-03T11:46:26.328Z,99.90
2017-08-03T11:48:54.646Z,99.90
2017-08-03T11:51:22.987Z,99.90
2017-08-03T11:53:51.330Z,99.90
2017-08-03T11:56:19.625Z,99.90
2017-08-03T11:58:48.703Z,99.90
2017-08-03T12:01:17.029Z,99.90
2017-08-03T12:03:45.359Z,99.90
2017-08-03T12:06:13.890Z,99.90
2017-08-03T12:08:42.210Z,99.90
2017-08-03T12:11:11.316Z,99.90
2017-08-03T12:13:39.643Z,99.90
2017-08-03T12:16:07.963Z,99.90
2017-08-03T12:18:37.035Z,99.90
2017-08-03T12:21:05.367Z,99.90
2017-08-03T12:23:33.674Z,99.90
2017-08-03T12:26:02.015Z,99.90
2017-08-03T12:28:30.310Z,99.90
2017-08-03T12:30:58.862Z,99.90
2017-08-03T12:33:27.382Z,99.90
2017-08-03T12:35:55.689Z,99.90
2017-08-03T12:38:24.317Z,99.50
2017-08-03T12:40:52.613Z,98.90
2017-08-03T12:43:20.942Z,98.80
2017-08-03T12:45:49.267Z,98.60
2017-08-03T12:48:17.686Z,98.90
2017-08-03T12:50:46.776Z,98.60
2017-08-03T12:53:15.097Z,98.50
2017-08-03T12:55:43.426Z,98.70
2017-08-03T12:58:11.747Z,98.50
2017-08-03T13:00:40.113Z,98.40
2017-08-03T13:03:09.163Z,98.00
2017-08-03T13:05:37.487Z,97.70
2017-08-03T13:08:05.809Z,96.60
2017-08-03T13:10:34.243Z,96.80
2017-08-03T13:13:02.579Z,96.50
2017-08-03T13:15:31.665Z,94.10
2017-08-03T13:17:59.996Z,94.20
2017-08-03T13:20:28.306Z,94.20
2017-08-03T13:22:56.657Z,93.40
2017-08-03T13:25:25.015Z,92.60
2017-08-03T13:27:53.334Z,92.50
2017-08-03T13:30:21.638Z,92.10
2017-08-03T13:32:50.010Z,91.60
2017-08-03T13:35:18.361Z,92.00
2017-08-03T13:37:46.827Z,92.40
2017-08-03T13:40:15.126Z,92.40
2017-08-03T13:42:44.236Z,92.20
2017-08-03T13:45:12.589Z,92.20
2017-08-03T13:47:40.896Z,91.70
2017-08-03T13:50:09.522Z,91.70
2017-08-03T13:52:37.836Z,92.40
2017-08-03T13:55:06.168Z,92.20
2017-08-03T13:57:34.503Z,92.50
2017-08-03T14:00:02.820Z,92.80
2017-08-03T14:02:31.403Z,92.30
2017-08-03T14:04:59.762Z,91.20
2017-08-03T14:07:28.048Z,91.00
2017-08-03T14:09:56.430Z,90.80
2017-08-03T14:12:24.791Z,90.60
2017-08-03T14:14:53.159Z,90.80
2017-08-03T14:17:21.542Z,91.10
2017-08-03T14:19:50.243Z,90.80
2017-08-03T14:22:18.632Z,90.90
2017-08-03T14:27:21.617Z,90.40
2017-08-03T14:29:49.969Z,90.60
2017-08-03T14:32:18.347Z,90.90
2017-08-03T14:34:46.646Z,90.90
2017-08-03T14:37:15.058Z,90.00
2017-08-03T14:39:43.372Z,90.20
2017-08-03T14:42:11.736Z,90.00
2017-08-03T14:44:40.075Z,90.40
2017-08-03T14:47:08.527Z,88.60
2017-08-03T14:49:36.862Z,88.30
2017-08-03T14:52:05.163Z,89.50
2017-08-03T14:54:33.490Z,89.40
2017-08-03T14:57:01.830Z,89.10
2017-08-03T14:59:30.960Z,89.20
2017-08-03T15:01:59.338Z,89.10
2017-08-03T15:04:27.619Z,89.00
2017-08-03T15:06:55.930Z,90.00
2017-08-03T15:09:24.394Z,89.40
2017-08-03T15:11:52.705Z,88.60
2017-08-03T15:14:21.051Z,90.00
2017-08-03T15:16:49.363Z,90.20
2017-08-03T15:19:17.658Z,90.70
2017-08-03T15:21:45.986Z,90.20
2017-08-03T15:24:14.291Z,90.80
2017-08-03T15:26:43.527Z,91.20
2017-08-03T15:29:11.859Z,90.90
2017-08-03T15:31:40.207Z,90.70
2017-08-03T15:34:08.568Z,90.10
2017-08-03T15:36:36.904Z,90.00
2017-08-03T15:39:06.031Z,88.40
2017-08-03T15:41:34.340Z,88.40
2017-08-03T15:44:02.664Z,88.40
2017-08-03T15:46:30.999Z,87.10
2017-08-03T15:48:59.347Z,86.50
2017-08-03T15:51:27.663Z,86.90
2017-08-03T15:53:56.305Z,86.80
2017-08-03T15:56:24.616Z,85.60
2017-08-03T15:58:52.926Z,82.80
2017-08-03T16:01:21.283Z,78.00
2017-08-03T16:03:49.574Z,76.50
2017-08-03T16:06:17.910Z,76.00
2017-08-03T16:08:46.228Z,74.40
2017-08-03T16:11:14.746Z,75.10
2017-08-03T16:13:43.046Z,75.00
2017-08-03T16:16:11.419Z,74.50
2017-08-03T16:18:39.747Z,74.50
2017-08-03T16:21:08.045Z,72.30
2017-08-03T16:23:36.392Z,70.90
2017-08-03T16:26:04.832Z,71.80
2017-08-03T16:28:33.143Z,71.50
2017-08-03T16:31:01.508Z,70.50
2017-08-03T16:33:30.040Z,69.80
2017-08-03T16:35:59.121Z,69.20
2017-08-03T16:38:27.455Z,69.10
2017-08-03T16:40:55.825Z,69.80
2017-08-03T16:43:24.160Z,69.40
2017-08-03T16:45:52.494Z,67.00
2017-08-03T16:48:20.781Z,65.60
2017-08-03T16:50:49.156Z,62.20
2017-08-03T16:53:17.463Z,61.00
2017-08-03T16:55:45.812Z,60.10
2017-08-03T16:58:14.126Z,59.20
2017-08-03T17:00:42.572Z,59.90
2017-08-03T17:03:10.902Z,59.10
2017-08-03T17:05:39.236Z,59.10
2017-08-03T17:08:07.627Z,58.80
2017-08-03T17:10:35.941Z,59.00
2017-08-03T17:13:04.306Z,59.20
2017-08-03T17:15:32.628Z,58.30
2017-08-03T17:18:00.944Z,56.90
2017-08-03T17:20:29.256Z,55.40
2017-08-03T17:22:57.999Z,54.70
2017-08-03T17:25:26.309Z,54.60
2017-08-03T17:27:54.628Z,53.00
2017-08-03T17:30:23.746Z,53.40
2017-08-03T17:32:52.108Z,53.30
2017-08-03T17:35:20.408Z,55.40
2017-08-03T17:37:49.479Z,53.90
2017-08-03T17:40:17.826Z,53.90
2017-08-03T17:42:46.123Z,55.90
2017-08-03T17:45:15.455Z,60.40
2017-08-03T17:47:43.806Z,60.40
2017-08-03T17:50:12.116Z,62.00
2017-08-03T17:52:40.482Z,63.80
2017-08-03T17:55:08.827Z,66.50
2017-08-03T17:57:37.146Z,68.30
2017-08-03T18:00:05.430Z,69.50
2017-08-03T18:02:33.907Z,71.10
2017-08-03T18:05:02.215Z,72.00
2017-08-03T18:07:30.516Z,71.90
2017-08-03T18:09:58.875Z,73.00
2017-08-03T18:12:27.239Z,73.70
2017-08-03T18:14:55.588Z,74.70
2017-08-03T18:17:23.902Z,75.00
2017-08-03T18:19:52.247Z,75.90
2017-08-03T18:22:20.577Z,76.20
2017-08-03T18:24:49.719Z,77.80
2017-08-03T18:27:18.030Z,77.80
2017-08-03T18:29:46.714Z,78.80
2017-08-03T18:32:15.022Z,79.40
2017-08-03T18:34:43.350Z,80.30
2017-08-03T18:37:11.677Z,82.00
2017-08-03T18:39:40.866Z,82.00
2017-08-03T18:42:09.187Z,82.00
2017-08-03T18:44:38.238Z,82.90
2017-08-03T18:47:06.583Z,83.50
2017-08-03T18:49:34.924Z,83.90
2017-08-03T18:52:03.270Z,84.70
2017-08-03T18:54:32.404Z,86.60
2017-08-03T18:57:00.701Z,86.50
2017-08-03T18:59:29.015Z,87.30
2017-08-03T19:01:58.114Z,88.90
2017-08-03T19:04:26.462Z,88.70
2017-08-03T19:06:54.769Z,89.50
2017-08-03T19:09:23.363Z,89.90
2017-08-03T19:11:51.662Z,90.30
2017-08-03T19:14:19.983Z,90.70
2017-08-03T19:16:48.326Z,91.20
2017-08-03T19:19:16.634Z,91.70
2017-08-03T19:21:44.986Z,91.90
2017-08-03T19:24:13.281Z,92.30
2017-08-03T19:26:41.619Z,92.60
2017-08-03T19:29:09.907Z,93.10
2017-08-03T19:31:38.293Z,93.60
2017-08-03T19:34:06.723Z,94.10
2017-08-03T19:36:35.855Z,94.90
2017-08-03T19:39:04.190Z,94.80
2017-08-03T19:41:32.543Z,95.30
2017-08-03T19:44:00.891Z,95.60
2017-08-03T19:46:29.250Z,95.90
2017-08-03T19:48:58.368Z,96.90
2017-08-03T19:51:27.030Z,96.80
2017-08-03T19:53:55.459Z,97.30
2017-08-03T19:56:23.786Z,97.60
2017-08-03T19:58:52.112Z,98.20
2017-08-03T20:01:20.441Z,98.40
2017-08-03T20:03:48.992Z,98.80
2017-08-03T20:06:24.936Z,99.10
2017-08-03T20:09:05.254Z,99.60
2017-08-03T20:11:33.592Z,99.90
2017-08-03T20:14:02.823Z,99.90
2017-08-03T20:16:31.142Z,99.90
2017-08-03T20:18:59.464Z,99.90
2017-08-03T20:21:28.545Z,99.90
2017-08-03T20:23:56.831Z,99.90
2017-08-03T20:26:25.986Z,99.90
2017-08-03T20:28:54.303Z,99.90
2017-08-03T20:31:22.649Z,99.90
2017-08-03T20:33:50.959Z,99.90
2017-08-03T20:36:19.358Z,99.90
2017-08-03T20:38:47.663Z,99.90
2017-08-03T20:41:16.144Z,99.90
2017-08-03T20:43:44.470Z,99.90
2017-08-03T20:46:12.778Z,99.90
2017-08-03T20:48:41.125Z,99.90
2017-08-03T20:51:10.294Z,99.90
2017-08-03T20:53:39.422Z,99.90
2017-08-03T20:56:08.491Z,99.90
2017-08-03T20:58:36.809Z,99.90
2017-08-03T21:01:05.107Z,99.90
2017-08-03T21:03:33.539Z,99.90
2017-08-03T21:06:01.868Z,99.90
2017-08-03T21:08:30.197Z,99.90
2017-08-03T21:10:58.553Z,99.90
2017-08-03T21:13:26.847Z,99.90
2017-08-03T21:15:55.938Z,99.90
2017-08-03T21:18:25.060Z,99.90
2017-08-03T21:20:53.407Z,99.90
2017-08-03T21:23:22.483Z,99.90
2017-08-03T21:25:50.885Z,99.90
2017-08-03T21:28:19.187Z,99.90
2017-08-03T21:30:47.547Z,99.90
2017-08-03T21:33:15.859Z,99.90
2017-08-03T21:35:44.330Z,99.90
2017-08-03T21:38:12.624Z,99.90
2017-08-03T21:40:40.948Z,99.90
2017-08-03T21:43:09.261Z,99.90
2017-08-03T21:45:37.568Z,99.90
2017-08-03T21:48:05.901Z,99.90
2017-08-03T21:50:34.237Z,99.90
2017-08-03T21:53:02.571Z,99.90
2017-08-03T21:55:30.855Z,99.90
2017-08-03T21:58:00.222Z,99.90
2017-08-03T22:00:41.268Z,99.90
2017-08-03T22:03:09.975Z,99.90
2017-08-03T22:05:39.044Z,99.90
2017-08-03T22:08:08.141Z,99.90
2017-08-03T22:10:36.465Z,99.90
2017-08-03T22:13:04.763Z,99.90
2017-08-03T22:15:33.095Z,99.90
2017-08-03T22:18:01.402Z,99.90
2017-08-03T22:20:29.724Z,99.90
2017-08-03T22:22:58.012Z,99.90
2017-08-03T22:25:26.439Z,99.90
2017-08-03T22:27:54.952Z,99.90
2017-08-03T22:30:23.256Z,99.90
2017-08-03T22:32:51.572Z,99.90
2017-08-03T22:35:19.862Z,99.90
2017-08-03T22:37:48.203Z,99.90
2017-08-03T22:40:17.259Z,99.90
2017-08-03T22:42:46.380Z,99.90
2017-08-03T22:45:15.441Z,99.90
2017-08-03T22:47:44.162Z,99.90
2017-08-03T22:50:12.484Z,99.90
2017-08-03T22:52:40.785Z,99.90
2017-08-03T22:55:09.099Z,99.90
2017-08-03T22:57:38.163Z,99.90
2017-08-03T23:00:06.486Z,99.90
2017-08-03T23:02:34.794Z,99.90
2017-08-03T23:05:03.110Z,99.90
2017-08-03T23:07:32.179Z,99.90
2017-08-03T23:10:01.295Z,99.90
2017-08-03T23:12:29.599Z,99.90
2017-08-03T23:14:58.260Z,99.90
2017-08-03T23:17:26.578Z,99.90
2017-08-03T23:19:54.879Z,99.90
2017-08-03T23:22:23.203Z,99.90
2017-08-03T23:24:52.259Z,99.90
2017-08-03T23:27:20.566Z,99.90
2017-08-03T23:29:49.623Z,99.90
2017-08-03T23:32:17.959Z,99.90
2017-08-03T23:34:46.330Z,99.90
2017-08-03T23:37:15.402Z,99.90
2017-08-03T23:39:44.470Z,99.90
2017-08-03T23:42:13.191Z,99.90
2017-08-03T23:44:42.263Z,99.90
2017-08-03T23:47:10.580Z,99.90
2017-08-03T23:49:38.899Z,99.90
2017-08-03T23:52:07.197Z,99.90
2017-08-03T23:54:35.538Z,99.90
2017-08-03T23:57:03.882Z,99.90
2017-08-03T23:59:32.963Z,99.90
